Hurlburt Field
KHRT : now visible

Airfield :











YOU CAN JOIN US ON...

 
LOGIN :

Register | Disclaimer

   EN    FR    IT 

 









Legend :    VFR   Marginal VFR   IFR   Intensive IFR   Very Intensive IFR
Visi :
Ceiling :
>= 8 km
>= 3000ft
5 to 8 km
1000 to 3000 ft
1500m to 5 km
500 to 1000 ft
800 to 1500m
200 to 500 ft
< 800m
< 200 ft
Symbols :   Thunderstorms  Fog  Heavy snow  Heavy precipitations  Wind > 20 kt







- Airport Elevation : 38 ft


KHRT - Hurlburt Field

CURRENT METAR :
  • 210456Z AUTO 01003KT 10SM CLR 21/20 A3014 RMK AO2 SLP208 T02140197 $

EXPIRED METARs :
  • 210356Z 02004KT 10SM FEW060 22/20 A3014 RMK AO2A SLP208 T02170198 $
  • 210256Z 36004KT 10SM FEW060 22/20 A3013 RMK AO2A SLP205 T02230202 52009 $

TAF TAF KHRT
Valid from the 21 at 02:00 until the 22 at 08:00 UTC


210200Z 2102/2208 VRB06KT 9999 FEW060 QNH3011INS
BECMG 2108/2109 09012G18KT 9999 SCT060 SCT250 QNH3009INS
BECMG 2119/2120 09009KT 9999 SCT060 SCT250 QNH3009INS TX30/2118Z TN21/2110Z
No reported NOTAMs for that airfield.



MET'MAP, your aeronautical weather chart ! - Copyright ORBIFLY December 2007 - Disclaimer

ORBIFLY MET'MAP TEAM :

Programming & Development : Alexandra Zaïnal
Concept & Development : Baudouin d'Aumeries
Co-Development & Prog : Marc-Olivier Méhu
Technical & hardware support : Manuel Goepfert

Contact : metmap@orbifly.com




SOURCES & CREDITS :

   NOAA       Earth
Advisory